CheckWX is a tool to help pilots better visualize weather data.  It is not intended as a substitute for an official pre-flight weather briefing.

16:55:40 UTC

CYAH TAF
La Grande IV Airport
La Grande, Canada
TAF AMD CYAH 181103Z 1811/1821 26010KT P6SM SCT012 OVC020 TEMPO 1811/1821 2SM -RA BR OVC007 RMK FCST BASED ON AUTO OBS. NXT FCST BY 181800Z

Jun-18@
11:00 UTC

Jun-18 @ 11:00 UTC

Jun-18@
21:00 UTC

Jun-18 @ 21:00 UTC

TAF AMD CYAH 181103Z 1811/1821 26010KT P6SM SCT012 OVC020
Wind
  • 260° at 10 KTS
Cloud Levels
  • Scattered at 1,200' AGL
  • Overcast at 2,000' AGL

Jun-18@
11:00 UTC

Jun-18 @ 11:00 UTC

Jun-18@
21:00 UTC

Jun-18 @ 21:00 UTC

TEMPO 1811/1821 2SM -RA BR OVC007 RMK FCST BASED ON AUTO OBS. NXT FCST BY 181800Z

Temporary

Temporary Changes expected for less than half the time period

Conditions
Light Rain, Mist
Cloud Levels
  • Overcast at 700' AGL